createdAt,value
2022-07-31T00:02:20.718Z,2.10
2022-07-31T00:07:43.290Z,2.30
2022-07-31T00:13:05.060Z,3.03
2022-07-31T00:18:26.859Z,3.30
2022-07-31T00:23:48.616Z,3.33
2022-07-31T00:29:10.914Z,3.45
2022-07-31T00:34:37.732Z,3.55
2022-07-31T00:39:59.479Z,3.47
2022-07-31T00:45:22.221Z,3.45
2022-07-31T00:50:51.083Z,3.53
2022-07-31T00:56:12.884Z,3.50
2022-07-31T01:01:34.730Z,3.67
2022-07-31T01:06:56.518Z,4.82
2022-07-31T01:12:25.918Z,4.45
2022-07-31T01:17:50.878Z,4.13
2022-07-31T01:23:50.108Z,8.20
2022-07-31T01:29:28.556Z,4.22
2022-07-31T01:34:54.646Z,4.25
2022-07-31T01:40:28.621Z,3.83
2022-07-31T01:45:55.440Z,3.17
2022-07-31T01:51:18.585Z,2.90
2022-07-31T01:56:41.007Z,3.40
2022-07-31T02:02:04.646Z,6.78
2022-07-31T02:07:28.034Z,3.50
2022-07-31T02:12:50.903Z,2.58
2022-07-31T02:18:13.118Z,2.30
2022-07-31T02:23:34.922Z,2.95
2022-07-31T02:28:57.173Z,2.40
2022-07-31T02:34:19.405Z,2.45
2022-07-31T02:39:43.734Z,2.60
2022-07-31T02:45:07.619Z,2.63
2022-07-31T02:50:30.153Z,2.20
2022-07-31T02:55:52.782Z,2.90
2022-07-31T03:01:15.150Z,2.90
2022-07-31T03:06:37.023Z,2.75
2022-07-31T03:12:01.868Z,2.50
2022-07-31T03:17:38.163Z,2.55
2022-07-31T03:23:03.403Z,2.58
2022-07-31T03:28:25.147Z,2.72
2022-07-31T03:33:46.991Z,2.85
2022-07-31T03:39:08.764Z,3.20
2022-07-31T03:44:32.663Z,3.20
2022-07-31T03:49:54.443Z,2.88
2022-07-31T03:55:16.667Z,3.08
2022-07-31T04:00:38.641Z,2.80
2022-07-31T04:06:00.355Z,2.70
2022-07-31T04:11:22.112Z,2.90
2022-07-31T04:16:43.830Z,2.78
2022-07-31T04:22:05.897Z,3.28
2022-07-31T04:27:27.891Z,3.05
2022-07-31T04:32:49.685Z,3.33
2022-07-31T04:38:12.203Z,3.20
2022-07-31T04:43:33.973Z,3.22
2022-07-31T04:48:55.910Z,3.00
2022-07-31T04:54:17.697Z,3.08
2022-07-31T04:59:59.632Z,3.05
2022-07-31T05:05:21.359Z,2.80
2022-07-31T05:11:01.732Z,3.40
2022-07-31T05:16:24.158Z,3.60
2022-07-31T05:21:53.368Z,3.10
2022-07-31T05:27:16.393Z,3.45
2022-07-31T05:32:38.108Z,3.20
2022-07-31T05:37:59.835Z,3.28
2022-07-31T05:43:21.663Z,3.35
2022-07-31T05:48:44.829Z,3.50
2022-07-31T05:54:06.575Z,3.47
2022-07-31T05:59:28.372Z,3.47
2022-07-31T06:04:50.266Z,4.03
2022-07-31T06:10:12.050Z,3.28
2022-07-31T06:15:36.603Z,3.50
2022-07-31T06:20:58.653Z,3.75
2022-07-31T06:26:20.471Z,3.03
2022-07-31T06:31:44.834Z,4.35
2022-07-31T06:37:06.629Z,3.20
2022-07-31T06:42:28.716Z,2.70
2022-07-31T06:47:50.469Z,3.13
2022-07-31T06:53:12.207Z,3.00
2022-07-31T06:58:33.909Z,3.42
2022-07-31T07:03:56.229Z,3.15
2022-07-31T07:09:17.970Z,3.30
2022-07-31T07:14:39.804Z,3.30
2022-07-31T07:20:01.545Z,2.95
2022-07-31T07:25:23.267Z,3.13
2022-07-31T07:30:45.189Z,3.30
2022-07-31T07:36:07.113Z,3.20
2022-07-31T07:41:28.941Z,3.03
2022-07-31T07:46:50.843Z,3.28
2022-07-31T07:52:12.850Z,3.00
2022-07-31T07:57:36.214Z,2.80
2022-07-31T08:03:46.987Z,3.28
2022-07-31T08:08:39.740Z,3.00
2022-07-31T08:14:01.469Z,2.63
2022-07-31T08:19:23.200Z,2.90
2022-07-31T08:24:45.196Z,2.50
2022-07-31T08:30:07.648Z,2.75
2022-07-31T08:35:29.478Z,2.85
2022-07-31T08:40:51.873Z,2.83
2022-07-31T08:46:13.789Z,2.90
2022-07-31T08:52:00.869Z,3.13
2022-07-31T08:57:20.522Z,2.60
2022-07-31T09:02:42.352Z,2.25
2022-07-31T09:08:06.555Z,2.33
2022-07-31T09:13:34.830Z,2.92
2022-07-31T09:19:01.559Z,2.42
2022-07-31T09:24:29.282Z,2.10
2022-07-31T09:29:52.767Z,2.00
2022-07-31T09:35:15.450Z,1.95
2022-07-31T09:40:51.547Z,2.33
2022-07-31T09:46:19.495Z,1.85
2022-07-31T09:51:43.906Z,1.80
2022-07-31T09:57:13.284Z,1.75
2022-07-31T10:02:38.927Z,1.77
2022-07-31T10:08:01.801Z,1.95
2022-07-31T10:13:24.669Z,1.80
2022-07-31T10:18:51.360Z,2.00
2022-07-31T10:24:13.423Z,1.77
2022-07-31T10:29:36.770Z,1.90
2022-07-31T10:34:58.882Z,2.00
2022-07-31T10:40:29.319Z,1.80
2022-07-31T10:45:53.389Z,1.90
2022-07-31T10:51:15.181Z,1.75
2022-07-31T10:56:46.171Z,2.50
2022-07-31T11:02:07.973Z,1.98
2022-07-31T11:07:29.797Z,1.60
2022-07-31T11:13:05.706Z,1.90
2022-07-31T11:18:31.164Z,1.90
2022-07-31T11:24:03.001Z,1.73
2022-07-31T11:29:59.153Z,2.10
2022-07-31T11:35:31.155Z,3.13
2022-07-31T11:40:53.092Z,1.73
2022-07-31T11:46:28.100Z,1.70
2022-07-31T11:51:49.900Z,2.08
2022-07-31T11:57:11.729Z,1.73
2022-07-31T12:02:33.712Z,1.70
2022-07-31T12:07:56.032Z,2.05
2022-07-31T12:13:20.418Z,1.50
2022-07-31T12:18:59.374Z,1.60
2022-07-31T12:24:21.669Z,1.20
2022-07-31T12:29:43.844Z,1.30
2022-07-31T12:35:06.284Z,1.65
2022-07-31T12:40:28.657Z,1.40
2022-07-31T12:45:54.165Z,1.88
2022-07-31T12:51:46.286Z,1.60
2022-07-31T12:57:03.727Z,2.00
2022-07-31T13:02:25.705Z,1.58
2022-07-31T13:07:48.311Z,1.60
2022-07-31T13:13:10.266Z,1.45
2022-07-31T13:18:32.782Z,1.70
2022-07-31T13:23:56.255Z,1.50
2022-07-31T13:29:21.019Z,1.70
2022-07-31T13:34:42.817Z,1.27
2022-07-31T13:40:07.094Z,1.40
2022-07-31T13:45:32.478Z,1.52
2022-07-31T13:50:54.230Z,1.35
2022-07-31T13:56:39.549Z,1.52
2022-07-31T14:02:02.847Z,1.20
2022-07-31T14:07:48.064Z,1.58
2022-07-31T14:13:08.274Z,1.60
2022-07-31T14:18:31.130Z,1.40
2022-07-31T14:23:52.947Z,1.58
2022-07-31T14:29:14.846Z,2.78
2022-07-31T14:34:36.656Z,1.55
2022-07-31T14:40:05.867Z,1.70
2022-07-31T14:45:27.743Z,1.20
2022-07-31T14:50:49.638Z,1.20
2022-07-31T14:56:11.374Z,1.42
2022-07-31T15:01:33.160Z,1.25
2022-07-31T15:07:07.661Z,1.27
2022-07-31T15:12:36.793Z,1.42
2022-07-31T15:17:58.587Z,1.30
2022-07-31T15:23:21.218Z,1.17
2022-07-31T15:28:43.067Z,1.20
2022-07-31T15:34:05.095Z,1.63
2022-07-31T15:39:26.922Z,1.30
2022-07-31T15:44:48.621Z,1.30
2022-07-31T15:50:13.279Z,1.23
2022-07-31T15:55:35.192Z,1.42
2022-07-31T16:00:57.229Z,1.50
2022-07-31T16:06:19.066Z,1.30
2022-07-31T16:12:04.510Z,1.45
2022-07-31T16:17:37.712Z,1.42
2022-07-31T16:23:03.569Z,1.60
2022-07-31T16:28:25.460Z,1.30
2022-07-31T16:33:50.902Z,1.40
2022-07-31T16:39:20.635Z,1.70
2022-07-31T16:44:43.652Z,1.25
2022-07-31T16:50:05.751Z,1.60
2022-07-31T16:55:59.485Z,1.65
2022-07-31T17:01:57.546Z,1.42
2022-07-31T17:06:52.303Z,1.23
2022-07-31T17:12:14.050Z,1.20
2022-07-31T17:17:35.906Z,1.33
2022-07-31T17:22:57.739Z,1.30
2022-07-31T17:28:19.489Z,1.70
2022-07-31T17:33:58.885Z,1.52
2022-07-31T17:39:21.736Z,1.45
2022-07-31T17:44:46.965Z,1.60
2022-07-31T17:50:12.726Z,1.50
2022-07-31T17:55:34.552Z,1.58
2022-07-31T18:00:56.274Z,1.55
2022-07-31T18:06:18.079Z,1.50
2022-07-31T18:11:39.841Z,1.40
2022-07-31T18:17:02.085Z,1.70
2022-07-31T18:22:23.934Z,2.00
2022-07-31T18:27:45.696Z,2.08
2022-07-31T18:33:07.615Z,3.00
2022-07-31T18:38:29.371Z,2.10
2022-07-31T18:43:51.265Z,1.80
2022-07-31T18:51:01.286Z,2.10
2022-07-31T18:54:54.875Z,2.30
2022-07-31T19:00:17.054Z,2.42
2022-07-31T19:05:39.318Z,3.30
2022-07-31T19:11:01.081Z,3.33
2022-07-31T19:16:24.384Z,2.55
2022-07-31T19:21:46.169Z,1.40
2022-07-31T19:27:08.023Z,1.35
2022-07-31T19:32:30.678Z,1.20
2022-07-31T19:38:03.290Z,1.52
2022-07-31T19:43:25.448Z,1.42
2022-07-31T19:48:47.435Z,1.23
2022-07-31T19:54:09.251Z,1.13
2022-07-31T19:59:31.977Z,2.08
2022-07-31T20:04:56.076Z,1.63
2022-07-31T20:10:17.864Z,1.40
2022-07-31T20:15:51.015Z,1.40
2022-07-31T20:21:14.886Z,1.20
2022-07-31T20:26:36.761Z,1.52
2022-07-31T20:31:59.733Z,1.40
2022-07-31T20:37:21.485Z,1.15
2022-07-31T20:42:43.258Z,1.50
2022-07-31T20:48:05.480Z,1.20
2022-07-31T20:53:27.599Z,1.42
2022-07-31T20:58:51.741Z,1.20
2022-07-31T21:04:13.842Z,1.27
2022-07-31T21:09:35.582Z,1.20
2022-07-31T21:14:57.383Z,1.38
2022-07-31T21:20:19.201Z,1.15
2022-07-31T21:25:44.075Z,1.13
2022-07-31T21:31:06.158Z,1.30
2022-07-31T21:36:28.630Z,1.50
2022-07-31T21:41:50.638Z,1.70
2022-07-31T21:47:18.490Z,1.35
2022-07-31T21:52:41.837Z,1.67
2022-07-31T21:58:05.107Z,1.50
2022-07-31T22:03:27.197Z,1.40
2022-07-31T22:08:48.999Z,1.52
2022-07-31T22:14:10.941Z,1.50
2022-07-31T22:19:32.924Z,1.60
2022-07-31T22:24:55.309Z,1.60
2022-07-31T22:30:17.870Z,1.58
2022-07-31T22:35:40.863Z,1.80
2022-07-31T22:41:03.210Z,1.58
2022-07-31T22:46:25.866Z,1.80
2022-07-31T22:51:47.599Z,1.77
2022-07-31T22:57:09.498Z,1.58
2022-07-31T23:02:31.348Z,1.67
2022-07-31T23:07:53.195Z,1.70
2022-07-31T23:13:14.925Z,1.63
2022-07-31T23:18:36.689Z,1.70
2022-07-31T23:23:58.381Z,1.83
2022-07-31T23:29:20.148Z,1.58
2022-07-31T23:34:41.864Z,1.90
2022-07-31T23:40:04.391Z,1.80
2022-07-31T23:45:26.114Z,1.92
2022-07-31T23:50:49.450Z,2.15
2022-07-31T23:56:14.308Z,2.10
